« Back
NWS Peachtree City, Ga » Text Product » MCN Terminal Aerodrome Forecast


Printer-friendly Version
Current Version              Previous Versions:   1  2  3  4  5  6  7  8  9  

Terminal Aerodrome Forecast

121
FTUS42 KFFC 251141
TAFMCN
TAF
KMCN 251141Z 2512/2612 00000KT P6SM FEW120
     FM251500 22003KT P6SM SCT035
     FM251800 24006KT P6SM VCSH SCT050
     FM260100 23003KT P6SM SCT100=

USA.gov is the U.S. government's official web portal to all federal, state and local government web resources and services.